sensor_id;sensor_type;location;lat;lon;timestamp;temperature;humidity
22167;DHT22;11249;52.468;13.776;2022-12-07T00:01:32;3.50;99.90
22167;DHT22;11249;52.468;13.776;2022-12-07T00:04:01;3.50;99.90
22167;DHT22;11249;52.468;13.776;2022-12-07T00:06:40;3.50;99.90
22167;DHT22;11249;52.468;13.776;2022-12-07T00:09:11;3.50;99.90
22167;DHT22;11249;52.468;13.776;2022-12-07T00:11:38;3.50;99.90
22167;DHT22;11249;52.468;13.776;2022-12-07T00:14:10;3.40;99.90
22167;DHT22;11249;52.468;13.776;2022-12-07T00:16:37;3.50;99.90
22167;DHT22;11249;52.468;13.776;2022-12-07T00:19:04;3.40;99.90
22167;DHT22;11249;52.468;13.776;2022-12-07T00:21:33;3.30;99.90
22167;DHT22;11249;52.468;13.776;2022-12-07T00:24:01;3.30;99.90
22167;DHT22;11249;52.468;13.776;2022-12-07T00:26:37;3.20;99.90
22167;DHT22;11249;52.468;13.776;2022-12-07T00:29:18;3.10;99.90
22167;DHT22;11249;52.468;13.776;2022-12-07T00:31:46;3.10;99.90
22167;DHT22;11249;52.468;13.776;2022-12-07T00:34:16;3.00;99.90
22167;DHT22;11249;52.468;13.776;2022-12-07T00:36:43;3.00;99.90
22167;DHT22;11249;52.468;13.776;2022-12-07T00:39:10;3.00;99.90
22167;DHT22;11249;52.468;13.776;2022-12-07T00:41:37;2.90;99.90
22167;DHT22;11249;52.468;13.776;2022-12-07T00:44:03;2.90;99.90
22167;DHT22;11249;52.468;13.776;2022-12-07T00:46:30;2.90;99.90
22167;DHT22;11249;52.468;13.776;2022-12-07T00:48:57;2.90;99.90
22167;DHT22;11249;52.468;13.776;2022-12-07T00:51:25;2.80;99.90
22167;DHT22;11249;52.468;13.776;2022-12-07T00:53:52;2.70;99.90
22167;DHT22;11249;52.468;13.776;2022-12-07T00:56:27;2.70;99.90
22167;DHT22;11249;52.468;13.776;2022-12-07T00:58:55;2.70;99.90
22167;DHT22;11249;52.468;13.776;2022-12-07T01:01:23;2.70;99.90
22167;DHT22;11249;52.468;13.776;2022-12-07T01:03:51;2.60;99.90
22167;DHT22;11249;52.468;13.776;2022-12-07T01:06:20;2.60;99.90
22167;DHT22;11249;52.468;13.776;2022-12-07T01:08:47;2.60;99.90
22167;DHT22;11249;52.468;13.776;2022-12-07T01:11:16;2.60;99.90
22167;DHT22;11249;52.468;13.776;2022-12-07T01:13:44;2.60;99.90
22167;DHT22;11249;52.468;13.776;2022-12-07T01:16:13;2.50;99.90
22167;DHT22;11249;52.468;13.776;2022-12-07T01:18:40;2.50;99.90
22167;DHT22;11249;52.468;13.776;2022-12-07T01:21:11;2.50;99.90
22167;DHT22;11249;52.468;13.776;2022-12-07T01:23:39;2.50;99.90
22167;DHT22;11249;52.468;13.776;2022-12-07T01:26:10;2.50;99.90
22167;DHT22;11249;52.468;13.776;2022-12-07T01:28:38;2.50;99.90
22167;DHT22;11249;52.468;13.776;2022-12-07T01:31:09;2.50;99.90
22167;DHT22;11249;52.468;13.776;2022-12-07T01:33:39;2.50;99.90
22167;DHT22;11249;52.468;13.776;2022-12-07T01:36:20;2.40;99.90
22167;DHT22;11249;52.468;13.776;2022-12-07T01:38:49;2.40;99.90
22167;DHT22;11249;52.468;13.776;2022-12-07T01:41:20;2.40;99.90
22167;DHT22;11249;52.468;13.776;2022-12-07T01:46:35;2.30;99.90
22167;DHT22;11249;52.468;13.776;2022-12-07T01:49:03;2.30;99.90
22167;DHT22;11249;52.468;13.776;2022-12-07T01:51:31;2.30;99.90
22167;DHT22;11249;52.468;13.776;2022-12-07T01:53:58;2.20;99.90
22167;DHT22;11249;52.468;13.776;2022-12-07T01:56:26;2.10;99.90
22167;DHT22;11249;52.468;13.776;2022-12-07T01:58:55;2.10;99.90
22167;DHT22;11249;52.468;13.776;2022-12-07T02:01:23;2.10;99.90
22167;DHT22;11249;52.468;13.776;2022-12-07T02:03:50;2.10;99.90
22167;DHT22;11249;52.468;13.776;2022-12-07T02:06:20;2.10;99.90
22167;DHT22;11249;52.468;13.776;2022-12-07T02:08:48;2.10;99.90
22167;DHT22;11249;52.468;13.776;2022-12-07T02:11:15;2.10;99.90
22167;DHT22;11249;52.468;13.776;2022-12-07T02:13:44;2.10;99.90
22167;DHT22;11249;52.468;13.776;2022-12-07T02:16:17;2.10;99.90
22167;DHT22;11249;52.468;13.776;2022-12-07T02:24:48;2.00;99.90
22167;DHT22;11249;52.468;13.776;2022-12-07T02:27:39;2.10;99.90
22167;DHT22;11249;52.468;13.776;2022-12-07T02:30:20;2.10;99.90
22167;DHT22;11249;52.468;13.776;2022-12-07T02:32:55;2.00;99.90
22167;DHT22;11249;52.468;13.776;2022-12-07T02:35:32;2.10;99.90
22167;DHT22;11249;52.468;13.776;2022-12-07T02:38:05;2.00;99.90
22167;DHT22;11249;52.468;13.776;2022-12-07T02:41:00;2.00;99.90
22167;DHT22;11249;52.468;13.776;2022-12-07T02:43:34;2.00;99.90
22167;DHT22;11249;52.468;13.776;2022-12-07T02:46:04;2.10;99.90
22167;DHT22;11249;52.468;13.776;2022-12-07T02:48:33;2.10;99.90
22167;DHT22;11249;52.468;13.776;2022-12-07T02:51:00;2.10;99.90
22167;DHT22;11249;52.468;13.776;2022-12-07T02:53:37;2.00;99.90
22167;DHT22;11249;52.468;13.776;2022-12-07T02:58:57;2.00;99.90
22167;DHT22;11249;52.468;13.776;2022-12-07T03:07:34;2.00;99.90
22167;DHT22;11249;52.468;13.776;2022-12-07T03:10:28;2.00;99.90
22167;DHT22;11249;52.468;13.776;2022-12-07T03:13:07;1.90;99.90
22167;DHT22;11249;52.468;13.776;2022-12-07T03:15:43;1.90;99.90
22167;DHT22;11249;52.468;13.776;2022-12-07T03:18:15;1.90;99.90
22167;DHT22;11249;52.468;13.776;2022-12-07T03:20:44;1.80;99.90
22167;DHT22;11249;52.468;13.776;2022-12-07T03:23:15;1.80;99.90
22167;DHT22;11249;52.468;13.776;2022-12-07T03:25:47;1.80;99.90
22167;DHT22;11249;52.468;13.776;2022-12-07T03:28:18;1.80;99.90
22167;DHT22;11249;52.468;13.776;2022-12-07T03:30:52;1.70;99.90
22167;DHT22;11249;52.468;13.776;2022-12-07T03:33:25;1.70;99.90
22167;DHT22;11249;52.468;13.776;2022-12-07T03:36:26;1.70;99.90
22167;DHT22;11249;52.468;13.776;2022-12-07T03:39:17;1.70;99.90
22167;DHT22;11249;52.468;13.776;2022-12-07T03:41:46;1.60;99.90
22167;DHT22;11249;52.468;13.776;2022-12-07T03:44:13;1.60;99.90
22167;DHT22;11249;52.468;13.776;2022-12-07T03:49:45;1.60;99.90
22167;DHT22;11249;52.468;13.776;2022-12-07T03:52:29;1.50;99.90
22167;DHT22;11249;52.468;13.776;2022-12-07T03:55:29;1.50;99.90
22167;DHT22;11249;52.468;13.776;2022-12-07T03:58:01;1.50;99.90
22167;DHT22;11249;52.468;13.776;2022-12-07T04:00:29;1.50;99.90
22167;DHT22;11249;52.468;13.776;2022-12-07T04:02:55;1.60;99.90
22167;DHT22;11249;52.468;13.776;2022-12-07T04:05:23;1.60;99.90
22167;DHT22;11249;52.468;13.776;2022-12-07T04:07:50;1.60;99.90
22167;DHT22;11249;52.468;13.776;2022-12-07T04:10:17;1.60;99.90
22167;DHT22;11249;52.468;13.776;2022-12-07T04:12:43;1.60;99.90
22167;DHT22;11249;52.468;13.776;2022-12-07T04:15:10;1.60;99.90
22167;DHT22;11249;52.468;13.776;2022-12-07T04:17:37;1.60;99.90
22167;DHT22;11249;52.468;13.776;2022-12-07T04:20:05;1.60;99.90
22167;DHT22;11249;52.468;13.776;2022-12-07T04:22:32;1.70;99.90
22167;DHT22;11249;52.468;13.776;2022-12-07T04:24:59;1.70;99.90
22167;DHT22;11249;52.468;13.776;2022-12-07T04:27:25;1.70;99.90
22167;DHT22;11249;52.468;13.776;2022-12-07T04:29:52;1.70;99.90
22167;DHT22;11249;52.468;13.776;2022-12-07T04:32:18;1.70;99.90
22167;DHT22;11249;52.468;13.776;2022-12-07T04:34:45;1.70;99.90
22167;DHT22;11249;52.468;13.776;2022-12-07T04:37:16;1.60;99.90
22167;DHT22;11249;52.468;13.776;2022-12-07T04:40:18;1.70;99.90
22167;DHT22;11249;52.468;13.776;2022-12-07T04:42:44;1.60;99.90
22167;DHT22;11249;52.468;13.776;2022-12-07T04:45:11;1.60;99.90
22167;DHT22;11249;52.468;13.776;2022-12-07T04:47:38;1.60;99.90
22167;DHT22;11249;52.468;13.776;2022-12-07T04:50:05;1.60;99.90
22167;DHT22;11249;52.468;13.776;2022-12-07T04:52:32;1.50;99.90
22167;DHT22;11249;52.468;13.776;2022-12-07T04:54:59;1.50;99.90
22167;DHT22;11249;52.468;13.776;2022-12-07T04:57:25;1.50;99.90
22167;DHT22;11249;52.468;13.776;2022-12-07T04:59:52;1.50;99.90
22167;DHT22;11249;52.468;13.776;2022-12-07T05:02:18;1.50;99.90
22167;DHT22;11249;52.468;13.776;2022-12-07T05:04:45;1.50;99.90
22167;DHT22;11249;52.468;13.776;2022-12-07T05:07:12;1.50;99.90
22167;DHT22;11249;52.468;13.776;2022-12-07T05:09:38;1.50;99.90
22167;DHT22;11249;52.468;13.776;2022-12-07T05:12:05;1.50;99.90
22167;DHT22;11249;52.468;13.776;2022-12-07T05:14:32;1.50;99.90
22167;DHT22;11249;52.468;13.776;2022-12-07T05:16:59;1.60;99.90
22167;DHT22;11249;52.468;13.776;2022-12-07T05:19:25;1.50;99.90
22167;DHT22;11249;52.468;13.776;2022-12-07T05:21:52;1.60;99.90
22167;DHT22;11249;52.468;13.776;2022-12-07T05:24:19;1.60;99.90
22167;DHT22;11249;52.468;13.776;2022-12-07T05:26:46;1.60;99.90
22167;DHT22;11249;52.468;13.776;2022-12-07T05:29:14;1.60;99.90
22167;DHT22;11249;52.468;13.776;2022-12-07T05:31:42;1.60;99.90
22167;DHT22;11249;52.468;13.776;2022-12-07T05:34:09;1.60;99.90
22167;DHT22;11249;52.468;13.776;2022-12-07T05:36:36;1.70;99.90
22167;DHT22;11249;52.468;13.776;2022-12-07T05:39:03;1.70;99.90
22167;DHT22;11249;52.468;13.776;2022-12-07T05:41:30;1.70;99.90
22167;DHT22;11249;52.468;13.776;2022-12-07T05:44:15;1.60;99.90
22167;DHT22;11249;52.468;13.776;2022-12-07T05:46:42;1.60;99.90
22167;DHT22;11249;52.468;13.776;2022-12-07T05:49:09;1.50;99.90
22167;DHT22;11249;52.468;13.776;2022-12-07T05:51:35;1.50;99.90
22167;DHT22;11249;52.468;13.776;2022-12-07T05:54:02;1.50;99.90
22167;DHT22;11249;52.468;13.776;2022-12-07T05:56:29;1.50;99.90
22167;DHT22;11249;52.468;13.776;2022-12-07T05:58:56;1.50;99.90
22167;DHT22;11249;52.468;13.776;2022-12-07T06:01:41;1.50;99.90
22167;DHT22;11249;52.468;13.776;2022-12-07T06:04:08;1.50;99.90
22167;DHT22;11249;52.468;13.776;2022-12-07T06:06:35;1.50;99.90
22167;DHT22;11249;52.468;13.776;2022-12-07T06:09:03;1.50;99.90
22167;DHT22;11249;52.468;13.776;2022-12-07T06:11:29;1.50;99.90
22167;DHT22;11249;52.468;13.776;2022-12-07T06:14:15;1.60;99.90
22167;DHT22;11249;52.468;13.776;2022-12-07T06:16:41;1.60;99.90
22167;DHT22;11249;52.468;13.776;2022-12-07T06:19:08;1.70;99.90
22167;DHT22;11249;52.468;13.776;2022-12-07T06:21:35;1.70;99.90
22167;DHT22;11249;52.468;13.776;2022-12-07T06:24:02;1.80;99.90
22167;DHT22;11249;52.468;13.776;2022-12-07T06:26:29;1.80;99.90
22167;DHT22;11249;52.468;13.776;2022-12-07T06:28:56;1.80;99.90
22167;DHT22;11249;52.468;13.776;2022-12-07T06:31:22;1.90;99.90
22167;DHT22;11249;52.468;13.776;2022-12-07T06:33:49;2.00;99.90
22167;DHT22;11249;52.468;13.776;2022-12-07T06:36:16;2.00;99.90
22167;DHT22;11249;52.468;13.776;2022-12-07T06:38:42;2.00;99.90
22167;DHT22;11249;52.468;13.776;2022-12-07T06:41:09;2.10;99.90
22167;DHT22;11249;52.468;13.776;2022-12-07T06:43:35;2.10;99.90
22167;DHT22;11249;52.468;13.776;2022-12-07T06:46:02;2.10;99.90
22167;DHT22;11249;52.468;13.776;2022-12-07T06:48:29;2.20;99.90
22167;DHT22;11249;52.468;13.776;2022-12-07T06:50:56;2.20;99.90
22167;DHT22;11249;52.468;13.776;2022-12-07T06:53:22;2.20;99.90
22167;DHT22;11249;52.468;13.776;2022-12-07T06:55:49;2.20;99.90
22167;DHT22;11249;52.468;13.776;2022-12-07T06:58:16;2.20;99.90
22167;DHT22;11249;52.468;13.776;2022-12-07T07:00:44;2.20;99.90
22167;DHT22;11249;52.468;13.776;2022-12-07T07:03:11;2.30;99.90
22167;DHT22;11249;52.468;13.776;2022-12-07T07:05:38;2.30;99.90
22167;DHT22;11249;52.468;13.776;2022-12-07T07:08:05;2.30;99.90
22167;DHT22;11249;52.468;13.776;2022-12-07T07:10:48;2.30;99.90
22167;DHT22;11249;52.468;13.776;2022-12-07T07:13:15;2.30;99.90
22167;DHT22;11249;52.468;13.776;2022-12-07T07:15:42;2.30;99.90
22167;DHT22;11249;52.468;13.776;2022-12-07T07:18:09;2.40;99.90
22167;DHT22;11249;52.468;13.776;2022-12-07T07:20:36;2.40;99.90
22167;DHT22;11249;52.468;13.776;2022-12-07T07:23:03;2.40;99.90
22167;DHT22;11249;52.468;13.776;2022-12-07T07:25:31;2.30;99.90
22167;DHT22;11249;52.468;13.776;2022-12-07T07:27:58;2.40;99.90
22167;DHT22;11249;52.468;13.776;2022-12-07T07:30:25;2.40;99.90
22167;DHT22;11249;52.468;13.776;2022-12-07T07:32:57;2.50;99.90
22167;DHT22;11249;52.468;13.776;2022-12-07T07:35:26;2.50;99.90
22167;DHT22;11249;52.468;13.776;2022-12-07T07:37:52;2.50;99.90
22167;DHT22;11249;52.468;13.776;2022-12-07T07:40:19;2.50;99.90
22167;DHT22;11249;52.468;13.776;2022-12-07T07:42:47;2.60;99.90
22167;DHT22;11249;52.468;13.776;2022-12-07T07:45:15;2.60;99.90
22167;DHT22;11249;52.468;13.776;2022-12-07T07:47:41;2.60;99.90
22167;DHT22;11249;52.468;13.776;2022-12-07T07:50:08;2.70;99.90
22167;DHT22;11249;52.468;13.776;2022-12-07T07:52:35;2.70;99.90
22167;DHT22;11249;52.468;13.776;2022-12-07T07:55:02;2.70;99.90
22167;DHT22;11249;52.468;13.776;2022-12-07T07:57:29;2.70;99.90
22167;DHT22;11249;52.468;13.776;2022-12-07T07:59:56;2.80;99.90
22167;DHT22;11249;52.468;13.776;2022-12-07T08:02:23;2.80;99.90
22167;DHT22;11249;52.468;13.776;2022-12-07T08:04:50;2.80;99.90
22167;DHT22;11249;52.468;13.776;2022-12-07T08:07:17;2.90;99.90
22167;DHT22;11249;52.468;13.776;2022-12-07T08:09:43;2.90;99.90
22167;DHT22;11249;52.468;13.776;2022-12-07T08:12:10;3.00;99.90
22167;DHT22;11249;52.468;13.776;2022-12-07T08:14:37;3.00;99.90
22167;DHT22;11249;52.468;13.776;2022-12-07T08:17:03;3.00;99.90
22167;DHT22;11249;52.468;13.776;2022-12-07T08:19:30;3.10;99.90
22167;DHT22;11249;52.468;13.776;2022-12-07T08:21:57;3.10;99.90
22167;DHT22;11249;52.468;13.776;2022-12-07T08:24:24;3.10;99.90
22167;DHT22;11249;52.468;13.776;2022-12-07T08:26:51;3.10;99.90
22167;DHT22;11249;52.468;13.776;2022-12-07T08:29:18;3.20;99.90
22167;DHT22;11249;52.468;13.776;2022-12-07T08:31:45;3.20;99.90
22167;DHT22;11249;52.468;13.776;2022-12-07T08:34:12;3.30;99.90
22167;DHT22;11249;52.468;13.776;2022-12-07T08:36:39;3.30;99.90
22167;DHT22;11249;52.468;13.776;2022-12-07T08:39:06;3.30;99.90
22167;DHT22;11249;52.468;13.776;2022-12-07T08:41:53;3.40;99.90
22167;DHT22;11249;52.468;13.776;2022-12-07T08:44:20;3.40;99.90
22167;DHT22;11249;52.468;13.776;2022-12-07T08:46:50;3.40;99.90
22167;DHT22;11249;52.468;13.776;2022-12-07T08:49:33;3.50;99.90
22167;DHT22;11249;52.468;13.776;2022-12-07T08:52:01;3.50;99.90
22167;DHT22;11249;52.468;13.776;2022-12-07T08:54:29;3.50;99.90
22167;DHT22;11249;52.468;13.776;2022-12-07T08:56:56;3.60;99.90
22167;DHT22;11249;52.468;13.776;2022-12-07T08:59:26;3.50;99.90
22167;DHT22;11249;52.468;13.776;2022-12-07T09:01:53;3.60;99.90
22167;DHT22;11249;52.468;13.776;2022-12-07T09:04:20;3.60;99.90
22167;DHT22;11249;52.468;13.776;2022-12-07T09:06:47;3.60;99.90
22167;DHT22;11249;52.468;13.776;2022-12-07T09:09:14;3.70;99.90
22167;DHT22;11249;52.468;13.776;2022-12-07T09:11:41;3.70;99.90
22167;DHT22;11249;52.468;13.776;2022-12-07T09:14:08;3.70;99.90
22167;DHT22;11249;52.468;13.776;2022-12-07T09:16:35;3.80;99.90
22167;DHT22;11249;52.468;13.776;2022-12-07T09:19:02;3.70;99.90
22167;DHT22;11249;52.468;13.776;2022-12-07T09:21:29;3.70;99.90
22167;DHT22;11249;52.468;13.776;2022-12-07T09:23:56;3.70;99.90
22167;DHT22;11249;52.468;13.776;2022-12-07T09:26:22;3.70;99.90
22167;DHT22;11249;52.468;13.776;2022-12-07T09:28:49;3.70;99.90
22167;DHT22;11249;52.468;13.776;2022-12-07T09:31:16;3.70;99.90
22167;DHT22;11249;52.468;13.776;2022-12-07T09:33:56;3.60;99.90
22167;DHT22;11249;52.468;13.776;2022-12-07T09:36:24;3.60;99.90
22167;DHT22;11249;52.468;13.776;2022-12-07T09:38:51;3.60;99.90
22167;DHT22;11249;52.468;13.776;2022-12-07T09:41:19;3.60;99.90
22167;DHT22;11249;52.468;13.776;2022-12-07T09:43:47;3.60;99.90
22167;DHT22;11249;52.468;13.776;2022-12-07T09:46:15;3.60;99.90
22167;DHT22;11249;52.468;13.776;2022-12-07T09:48:45;3.60;99.90
22167;DHT22;11249;52.468;13.776;2022-12-07T09:51:20;3.60;99.90
22167;DHT22;11249;52.468;13.776;2022-12-07T09:53:55;3.60;99.90
22167;DHT22;11249;52.468;13.776;2022-12-07T09:56:23;3.70;99.90
22167;DHT22;11249;52.468;13.776;2022-12-07T09:58:58;3.70;99.90
22167;DHT22;11249;52.468;13.776;2022-12-07T10:01:29;3.70;99.90
22167;DHT22;11249;52.468;13.776;2022-12-07T10:06:33;3.60;99.90
22167;DHT22;11249;52.468;13.776;2022-12-07T10:09:00;3.70;99.90
22167;DHT22;11249;52.468;13.776;2022-12-07T10:11:27;3.60;99.90
22167;DHT22;11249;52.468;13.776;2022-12-07T10:13:54;3.60;99.90
22167;DHT22;11249;52.468;13.776;2022-12-07T10:18:51;3.50;99.90
22167;DHT22;11249;52.468;13.776;2022-12-07T10:21:20;3.50;99.90
22167;DHT22;11249;52.468;13.776;2022-12-07T10:26:34;3.50;99.90
22167;DHT22;11249;52.468;13.776;2022-12-07T10:29:20;3.40;99.90
22167;DHT22;11249;52.468;13.776;2022-12-07T10:31:54;3.50;99.90
22167;DHT22;11249;52.468;13.776;2022-12-07T10:34:28;3.40;99.90
22167;DHT22;11249;52.468;13.776;2022-12-07T10:39:50;3.50;99.90
22167;DHT22;11249;52.468;13.776;2022-12-07T10:42:24;3.50;99.90
22167;DHT22;11249;52.468;13.776;2022-12-07T10:45:17;3.50;99.90
22167;DHT22;11249;52.468;13.776;2022-12-07T10:50:49;3.50;99.90
22167;DHT22;11249;52.468;13.776;2022-12-07T10:53:48;3.50;99.90
22167;DHT22;11249;52.468;13.776;2022-12-07T10:56:42;3.60;99.90
22167;DHT22;11249;52.468;13.776;2022-12-07T11:02:02;3.80;99.90
22167;DHT22;11249;52.468;13.776;2022-12-07T11:07:44;3.60;99.90
22167;DHT22;11249;52.468;13.776;2022-12-07T11:10:29;3.60;99.90
22167;DHT22;11249;52.468;13.776;2022-12-07T11:16:02;3.50;99.90
22167;DHT22;11249;52.468;13.776;2022-12-07T11:18:51;3.60;99.90
22167;DHT22;11249;52.468;13.776;2022-12-07T11:21:57;3.70;99.90
22167;DHT22;11249;52.468;13.776;2022-12-07T11:24:40;3.70;99.90
22167;DHT22;11249;52.468;13.776;2022-12-07T11:30:20;3.70;99.90
22167;DHT22;11249;52.468;13.776;2022-12-07T11:33:01;3.70;99.90
22167;DHT22;11249;52.468;13.776;2022-12-07T11:35:50;3.70;99.90
22167;DHT22;11249;52.468;13.776;2022-12-07T11:38:26;3.70;99.90
22167;DHT22;11249;52.468;13.776;2022-12-07T11:41:01;3.70;99.90
22167;DHT22;11249;52.468;13.776;2022-12-07T11:46:49;3.70;99.90
22167;DHT22;11249;52.468;13.776;2022-12-07T11:49:40;3.80;99.90
22167;DHT22;11249;52.468;13.776;2022-12-07T11:52:13;3.80;99.90
22167;DHT22;11249;52.468;13.776;2022-12-07T11:54:43;3.80;99.90
22167;DHT22;11249;52.468;13.776;2022-12-07T11:57:24;3.80;99.90
22167;DHT22;11249;52.468;13.776;2022-12-07T11:59:57;3.80;99.90
22167;DHT22;11249;52.468;13.776;2022-12-07T12:02:51;3.70;99.90
22167;DHT22;11249;52.468;13.776;2022-12-07T12:05:21;3.80;99.90
22167;DHT22;11249;52.468;13.776;2022-12-07T12:08:15;3.80;99.90
22167;DHT22;11249;52.468;13.776;2022-12-07T12:11:29;3.80;99.90
22167;DHT22;11249;52.468;13.776;2022-12-07T12:17:14;3.90;99.90
22167;DHT22;11249;52.468;13.776;2022-12-07T12:23:48;3.90;99.90
22167;DHT22;11249;52.468;13.776;2022-12-07T12:25:55;3.90;99.90
22167;DHT22;11249;52.468;13.776;2022-12-07T12:28:40;4.00;99.90
22167;DHT22;11249;52.468;13.776;2022-12-07T12:31:32;4.00;99.90
22167;DHT22;11249;52.468;13.776;2022-12-07T12:34:02;4.00;99.90
22167;DHT22;11249;52.468;13.776;2022-12-07T12:39:13;4.10;99.90
22167;DHT22;11249;52.468;13.776;2022-12-07T12:47:10;4.10;99.90
22167;DHT22;11249;52.468;13.776;2022-12-07T12:50:18;4.10;99.90
22167;DHT22;11249;52.468;13.776;2022-12-07T13:00:46;4.10;99.90
22167;DHT22;11249;52.468;13.776;2022-12-07T13:03:28;4.20;99.90
22167;DHT22;11249;52.468;13.776;2022-12-07T13:08:55;4.20;99.90
22167;DHT22;11249;52.468;13.776;2022-12-07T13:11:39;4.10;99.90
22167;DHT22;11249;52.468;13.776;2022-12-07T13:20:07;4.20;99.90
22167;DHT22;11249;52.468;13.776;2022-12-07T13:22:43;4.20;99.90
22167;DHT22;11249;52.468;13.776;2022-12-07T13:28:06;4.10;99.90
22167;DHT22;11249;52.468;13.776;2022-12-07T13:31:02;4.10;99.90
22167;DHT22;11249;52.468;13.776;2022-12-07T13:33:28;4.10;99.90
22167;DHT22;11249;52.468;13.776;2022-12-07T13:35:56;4.10;99.90
22167;DHT22;11249;52.468;13.776;2022-12-07T13:38:31;4.10;99.90
22167;DHT22;11249;52.468;13.776;2022-12-07T13:41:20;4.10;99.90
22167;DHT22;11249;52.468;13.776;2022-12-07T13:46:40;4.20;99.90
22167;DHT22;11249;52.468;13.776;2022-12-07T13:49:26;4.10;99.90
22167;DHT22;11249;52.468;13.776;2022-12-07T13:51:55;4.20;99.90
22167;DHT22;11249;52.468;13.776;2022-12-07T13:54:33;4.10;99.90
22167;DHT22;11249;52.468;13.776;2022-12-07T13:57:01;4.10;99.90
22167;DHT22;11249;52.468;13.776;2022-12-07T13:59:28;4.10;99.90
22167;DHT22;11249;52.468;13.776;2022-12-07T14:01:57;4.10;99.90
22167;DHT22;11249;52.468;13.776;2022-12-07T14:04:36;4.10;99.90
22167;DHT22;11249;52.468;13.776;2022-12-07T14:07:24;4.10;99.90
22167;DHT22;11249;52.468;13.776;2022-12-07T14:10:00;4.10;99.90
22167;DHT22;11249;52.468;13.776;2022-12-07T14:12:29;4.20;99.90
22167;DHT22;11249;52.468;13.776;2022-12-07T14:14:56;4.20;99.90
22167;DHT22;11249;52.468;13.776;2022-12-07T14:17:26;4.20;99.90
22167;DHT22;11249;52.468;13.776;2022-12-07T14:20:00;4.20;99.90
22167;DHT22;11249;52.468;13.776;2022-12-07T14:22:34;4.20;99.90
22167;DHT22;11249;52.468;13.776;2022-12-07T14:27:57;4.20;99.90
22167;DHT22;11249;52.468;13.776;2022-12-07T14:30:30;4.20;99.90
22167;DHT22;11249;52.468;13.776;2022-12-07T14:33:03;4.20;99.90
22167;DHT22;11249;52.468;13.776;2022-12-07T14:35:31;4.20;99.90
22167;DHT22;11249;52.468;13.776;2022-12-07T14:37:58;4.20;99.90
22167;DHT22;11249;52.468;13.776;2022-12-07T14:40:27;4.20;99.90
22167;DHT22;11249;52.468;13.776;2022-12-07T14:43:00;4.20;99.90
22167;DHT22;11249;52.468;13.776;2022-12-07T14:45:28;4.10;99.90
22167;DHT22;11249;52.468;13.776;2022-12-07T14:47:55;4.20;99.90
22167;DHT22;11249;52.468;13.776;2022-12-07T14:50:44;4.10;99.90
22167;DHT22;11249;52.468;13.776;2022-12-07T14:53:35;4.10;99.90
22167;DHT22;11249;52.468;13.776;2022-12-07T14:56:03;4.10;99.90
22167;DHT22;11249;52.468;13.776;2022-12-07T14:58:32;4.20;99.90
22167;DHT22;11249;52.468;13.776;2022-12-07T15:00:59;4.10;99.90
22167;DHT22;11249;52.468;13.776;2022-12-07T15:03:26;4.20;99.90
22167;DHT22;11249;52.468;13.776;2022-12-07T15:05:53;4.20;99.90
22167;DHT22;11249;52.468;13.776;2022-12-07T15:08:19;4.20;99.90
22167;DHT22;11249;52.468;13.776;2022-12-07T15:10:46;4.10;99.90
22167;DHT22;11249;52.468;13.776;2022-12-07T15:13:13;4.10;99.90
22167;DHT22;11249;52.468;13.776;2022-12-07T15:15:59;4.10;99.90
22167;DHT22;11249;52.468;13.776;2022-12-07T15:18:27;4.10;99.90
22167;DHT22;11249;52.468;13.776;2022-12-07T15:20:54;4.10;99.90
22167;DHT22;11249;52.468;13.776;2022-12-07T15:23:20;4.10;99.90
22167;DHT22;11249;52.468;13.776;2022-12-07T15:25:48;4.10;99.90
22167;DHT22;11249;52.468;13.776;2022-12-07T15:28:15;4.00;99.90
22167;DHT22;11249;52.468;13.776;2022-12-07T15:30:43;4.00;99.90
22167;DHT22;11249;52.468;13.776;2022-12-07T15:33:11;4.00;99.90
22167;DHT22;11249;52.468;13.776;2022-12-07T15:35:47;4.00;99.90
22167;DHT22;11249;52.468;13.776;2022-12-07T15:38:14;3.90;99.90
22167;DHT22;11249;52.468;13.776;2022-12-07T15:40:40;3.90;99.90
22167;DHT22;11249;52.468;13.776;2022-12-07T15:43:10;3.80;99.90
22167;DHT22;11249;52.468;13.776;2022-12-07T15:45:57;3.80;99.90
22167;DHT22;11249;52.468;13.776;2022-12-07T15:48:24;3.70;99.90
22167;DHT22;11249;52.468;13.776;2022-12-07T15:51:04;3.60;99.90
22167;DHT22;11249;52.468;13.776;2022-12-07T15:53:33;3.60;99.90
22167;DHT22;11249;52.468;13.776;2022-12-07T15:56:01;3.60;99.90
22167;DHT22;11249;52.468;13.776;2022-12-07T15:58:28;3.60;99.90
22167;DHT22;11249;52.468;13.776;2022-12-07T16:00:54;3.60;99.90
22167;DHT22;11249;52.468;13.776;2022-12-07T16:03:21;3.60;99.90
22167;DHT22;11249;52.468;13.776;2022-12-07T16:05:51;3.50;99.90
22167;DHT22;11249;52.468;13.776;2022-12-07T16:08:18;3.50;99.90
22167;DHT22;11249;52.468;13.776;2022-12-07T16:10:46;3.40;99.90
22167;DHT22;11249;52.468;13.776;2022-12-07T16:13:12;3.40;99.90
22167;DHT22;11249;52.468;13.776;2022-12-07T16:15:42;3.40;99.90
22167;DHT22;11249;52.468;13.776;2022-12-07T16:18:09;3.40;99.90
22167;DHT22;11249;52.468;13.776;2022-12-07T16:20:36;3.40;99.90
22167;DHT22;11249;52.468;13.776;2022-12-07T16:23:03;3.40;99.90
22167;DHT22;11249;52.468;13.776;2022-12-07T16:25:29;3.50;99.90
22167;DHT22;11249;52.468;13.776;2022-12-07T16:27:56;3.40;99.90
22167;DHT22;11249;52.468;13.776;2022-12-07T16:30:23;3.50;99.90
22167;DHT22;11249;52.468;13.776;2022-12-07T16:32:49;3.50;99.90
22167;DHT22;11249;52.468;13.776;2022-12-07T16:35:16;3.50;99.90
22167;DHT22;11249;52.468;13.776;2022-12-07T16:37:43;3.50;99.90
22167;DHT22;11249;52.468;13.776;2022-12-07T16:40:11;3.60;99.90
22167;DHT22;11249;52.468;13.776;2022-12-07T16:42:38;3.60;99.90
22167;DHT22;11249;52.468;13.776;2022-12-07T16:45:05;3.60;99.90
22167;DHT22;11249;52.468;13.776;2022-12-07T16:47:32;3.60;99.90
22167;DHT22;11249;52.468;13.776;2022-12-07T16:49:58;3.70;99.90
22167;DHT22;11249;52.468;13.776;2022-12-07T16:52:25;3.60;99.90
22167;DHT22;11249;52.468;13.776;2022-12-07T16:54:52;3.50;99.90
22167;DHT22;11249;52.468;13.776;2022-12-07T16:57:19;3.40;99.90
22167;DHT22;11249;52.468;13.776;2022-12-07T16:59:49;3.40;99.90
22167;DHT22;11249;52.468;13.776;2022-12-07T17:02:16;3.50;99.90
22167;DHT22;11249;52.468;13.776;2022-12-07T17:04:43;3.50;99.90
22167;DHT22;11249;52.468;13.776;2022-12-07T17:07:10;3.50;99.90
22167;DHT22;11249;52.468;13.776;2022-12-07T17:09:36;3.50;99.90
22167;DHT22;11249;52.468;13.776;2022-12-07T17:12:03;3.40;99.90
22167;DHT22;11249;52.468;13.776;2022-12-07T17:14:31;3.50;99.90
22167;DHT22;11249;52.468;13.776;2022-12-07T17:17:17;3.40;99.90
22167;DHT22;11249;52.468;13.776;2022-12-07T17:19:43;3.40;99.90
22167;DHT22;11249;52.468;13.776;2022-12-07T17:22:10;3.40;99.90
22167;DHT22;11249;52.468;13.776;2022-12-07T17:24:39;3.30;99.90